createdAt,value
2022-07-30T00:05:17.637Z,74
2022-07-30T00:10:57.792Z,70
2022-07-30T00:16:38.819Z,70
2022-07-30T00:22:19.258Z,70
2022-07-30T00:27:59.570Z,78
2022-07-30T00:33:39.472Z,72
2022-07-30T00:39:19.743Z,74
2022-07-30T00:44:59.668Z,72
2022-07-30T00:50:39.687Z,62
2022-07-30T00:56:19.735Z,78
2022-07-30T01:02:00.448Z,72
2022-07-30T01:13:21.101Z,70
2022-07-30T01:19:01.173Z,70
2022-07-30T01:24:41.285Z,64
2022-07-30T01:30:21.432Z,70
2022-07-30T01:36:01.702Z,78
2022-07-30T01:41:42.171Z,62
2022-07-30T01:47:22.149Z,70
2022-07-30T01:53:02.202Z,62
2022-07-30T01:58:42.342Z,64
2022-07-30T02:04:22.672Z,64
2022-07-30T02:10:02.944Z,72
2022-07-30T02:15:43.305Z,72
2022-07-30T02:21:37.402Z,64
2022-07-30T02:27:17.730Z,68
2022-07-30T02:32:57.888Z,70
2022-07-30T02:38:38.377Z,70
2022-07-30T02:44:18.619Z,60
2022-07-30T02:49:58.750Z,58
2022-07-30T03:01:21.053Z,74
2022-07-30T03:07:10.603Z,72
2022-07-30T03:12:51.924Z,66
2022-07-30T03:18:32.594Z,64
2022-07-30T03:24:12.982Z,76
2022-07-30T03:29:53.270Z,66
2022-07-30T03:35:33.974Z,62
2022-07-30T03:41:14.381Z,66
2022-07-30T03:46:55.630Z,80
2022-07-30T03:52:41.730Z,70
2022-07-30T03:58:22.044Z,72
2022-07-30T04:04:02.869Z,84
2022-07-30T04:09:43.310Z,66
2022-07-30T04:16:43.114Z,66
2022-07-30T04:22:25.849Z,66
2022-07-30T04:28:05.871Z,68
2022-07-30T04:39:26.128Z,76
2022-07-30T04:45:06.387Z,68
2022-07-30T04:50:46.884Z,66
2022-07-30T04:56:27.221Z,82
2022-07-30T05:02:08.389Z,64
2022-07-30T05:07:48.603Z,66
2022-07-30T05:13:46.554Z,66
2022-07-30T05:19:27.346Z,64
2022-07-30T05:25:16.854Z,64
2022-07-30T05:30:59.568Z,66
2022-07-30T05:36:41.494Z,70
2022-07-30T05:42:21.590Z,60
2022-07-30T05:48:01.997Z,80
2022-07-30T05:53:42.148Z,66
2022-07-30T05:59:22.175Z,72
2022-07-30T06:05:03.123Z,76
2022-07-30T06:10:44.017Z,68
2022-07-30T06:33:29.588Z,62
2022-07-30T06:39:10.057Z,76
2022-07-30T06:44:50.349Z,72
2022-07-30T06:50:30.587Z,78
2022-07-30T06:56:10.814Z,80
2022-07-30T07:01:51.554Z,68
2022-07-30T07:08:00.189Z,72
2022-07-30T07:13:41.024Z,62
2022-07-30T07:20:03.457Z,48
2022-07-30T07:25:46.241Z,38
2022-07-30T07:32:08.942Z,82
2022-07-30T07:37:49.621Z,48
2022-07-30T07:49:12.021Z,32
2022-07-30T07:54:52.522Z,70
2022-07-30T08:00:34.419Z,16
2022-07-30T08:06:16.229Z,18
2022-07-30T08:11:56.543Z,70
2022-07-30T08:17:35.775Z,20
2022-07-30T08:23:20.381Z,10
2022-07-30T08:29:02.004Z,14
2022-07-30T08:34:42.544Z,22
2022-07-30T08:40:22.249Z,72
2022-07-30T08:46:02.543Z,6
2022-07-30T08:51:43.875Z,36
2022-07-30T08:57:23.845Z,20
2022-07-30T09:03:04.481Z,24
2022-07-30T09:08:44.321Z,62
2022-07-30T09:14:34.030Z,4
2022-07-30T09:20:16.874Z,4
2022-07-30T09:25:57.375Z,6
2022-07-30T09:31:54.840Z,16
2022-07-30T09:37:35.061Z,4
2022-07-30T09:43:16.019Z,8
2022-07-30T09:49:08.972Z,2
2022-07-30T09:55:03.891Z,10
2022-07-30T10:06:25.975Z,8
2022-07-30T10:12:24.721Z,2
2022-07-30T10:18:22.026Z,2
2022-07-30T10:24:12.129Z,0
2022-07-30T10:30:05.927Z,2
2022-07-30T10:35:52.246Z,6
2022-07-30T10:41:54.947Z,10
2022-07-30T10:47:53.155Z,4
2022-07-30T10:53:53.181Z,6
2022-07-30T10:59:45.650Z,0
2022-07-30T11:05:49.053Z,4
2022-07-30T11:12:19.579Z,10
2022-07-30T11:18:11.538Z,10
2022-07-30T11:23:57.385Z,0
2022-07-30T11:29:55.689Z,4
2022-07-30T11:35:41.946Z,4
2022-07-30T11:41:28.735Z,0
2022-07-30T11:47:12.046Z,6
2022-07-30T11:53:00.670Z,14
2022-07-30T11:58:41.229Z,2
2022-07-30T12:04:21.584Z,8
2022-07-30T12:15:14.697Z,9
2022-07-30T12:21:02.853Z,4
2022-07-30T12:26:43.353Z,10
2022-07-30T12:32:24.276Z,4
2022-07-30T12:38:04.445Z,2
2022-07-30T12:43:50.357Z,8
2022-07-30T12:49:54.009Z,14
2022-07-30T12:55:42.158Z,0
2022-07-30T13:01:23.256Z,24
2022-07-30T13:07:08.987Z,14
2022-07-30T13:13:07.275Z,10
2022-07-30T13:19:05.658Z,6
2022-07-30T13:24:46.649Z,0
2022-07-30T13:30:27.704Z,0
2022-07-30T13:36:23.206Z,0
2022-07-30T13:53:44.314Z,0
2022-07-30T13:59:31.089Z,0
2022-07-30T14:05:23.034Z,4
2022-07-30T14:11:03.507Z,2
2022-07-30T14:16:57.580Z,28
2022-07-30T14:22:44.805Z,76
2022-07-30T14:28:39.715Z,82
2022-07-30T14:35:06.886Z,78
2022-07-30T14:41:00.735Z,80
2022-07-30T14:53:23.217Z,4
2022-07-30T14:59:03.735Z,2
2022-07-30T15:04:43.979Z,2
2022-07-30T15:10:25.707Z,10
2022-07-30T15:16:12.367Z,12
2022-07-30T15:22:06.259Z,6
2022-07-30T15:27:48.456Z,10
2022-07-30T15:33:28.525Z,2
2022-07-30T15:39:12.413Z,4
2022-07-30T15:45:26.101Z,10
2022-07-30T15:51:09.557Z,14
2022-07-30T15:57:02.047Z,78
2022-07-30T16:02:42.435Z,80
2022-07-30T16:08:22.074Z,82
2022-07-30T16:14:01.795Z,78
2022-07-30T16:19:45.698Z,74
2022-07-30T16:25:26.164Z,78
2022-07-30T16:31:06.523Z,80
2022-07-30T16:36:49.924Z,82
2022-07-30T16:42:30.003Z,72
2022-07-30T16:48:10.714Z,78
2022-07-30T16:53:50.906Z,80
2022-07-30T16:59:31.010Z,82
2022-07-30T17:05:14.437Z,76
2022-07-30T17:16:39.155Z,82
2022-07-30T17:22:19.992Z,84
2022-07-30T17:28:00.481Z,80
2022-07-30T17:33:42.358Z,78
2022-07-30T17:40:35.442Z,92
2022-07-30T17:46:16.529Z,88
2022-07-30T17:51:56.665Z,80
2022-07-30T17:57:40.204Z,84
2022-07-30T18:03:20.666Z,72
2022-07-30T18:09:14.740Z,84
2022-07-30T18:15:02.783Z,86
2022-07-30T18:20:50.042Z,80
2022-07-30T18:26:49.579Z,78
2022-07-30T18:32:54.666Z,70
2022-07-30T18:38:42.655Z,82
2022-07-30T18:44:30.746Z,70
2022-07-30T18:50:29.935Z,70
2022-07-30T18:56:21.631Z,70
2022-07-30T19:02:21.672Z,72
2022-07-30T19:08:17.816Z,80
2022-07-30T19:14:19.974Z,86
2022-07-30T19:20:06.481Z,72
2022-07-30T19:25:49.417Z,76
2022-07-30T20:15:46.654Z,72
2022-07-30T20:21:58.286Z,70
2022-07-30T20:33:57.455Z,76
2022-07-30T20:39:49.347Z,72
2022-07-30T20:45:44.146Z,74
2022-07-30T20:51:42.019Z,72
2022-07-30T20:58:17.886Z,76
2022-07-30T21:04:27.210Z,70
2022-07-30T21:10:23.560Z,66
2022-07-30T21:16:20.290Z,76
2022-07-30T21:22:03.208Z,78
2022-07-30T21:27:44.160Z,68
2022-07-30T21:33:45.956Z,74
2022-07-30T21:39:58.084Z,64
2022-07-30T21:45:57.712Z,74
2022-07-30T21:52:08.178Z,70
2022-07-30T21:57:53.743Z,72
2022-07-30T23:12:58.346Z,72
2022-07-30T23:18:40.213Z,66
2022-07-30T23:24:20.010Z,72
2022-07-30T23:30:03.083Z,70
2022-07-30T23:35:43.104Z,78
2022-07-30T23:41:31.169Z,66
2022-07-30T23:47:11.461Z,76
2022-07-30T23:52:51.607Z,72
2022-07-30T23:58:31.846Z,62
